createdAt,value
2018-05-14T00:02:19.947Z,20.10
2018-05-14T00:04:45.832Z,21.00
2018-05-14T00:07:11.719Z,21.83
2018-05-14T00:09:37.647Z,20.23
2018-05-14T00:12:03.552Z,20.97
2018-05-14T00:14:29.453Z,22.75
2018-05-14T00:16:55.361Z,20.55
2018-05-14T00:19:21.251Z,21.10
2018-05-14T00:21:47.184Z,21.07
2018-05-14T00:24:13.074Z,21.48
2018-05-14T00:26:38.991Z,25.15
2018-05-14T00:29:04.932Z,25.05
2018-05-14T00:31:30.832Z,23.17
2018-05-14T00:33:56.723Z,24.60
2018-05-14T00:36:22.610Z,24.92
2018-05-14T00:38:48.471Z,27.00
2018-05-14T00:41:14.351Z,25.70
2018-05-14T00:43:40.250Z,25.20
2018-05-14T00:46:06.128Z,26.42
2018-05-14T00:48:31.997Z,26.77
2018-05-14T00:50:57.936Z,27.07
2018-05-14T00:53:23.837Z,25.70
2018-05-14T00:55:49.740Z,24.87
2018-05-14T00:58:15.648Z,25.20
2018-05-14T01:00:41.557Z,23.23
2018-05-14T01:03:07.493Z,22.90
2018-05-14T01:05:33.383Z,23.00
2018-05-14T01:07:59.340Z,22.20
2018-05-14T01:10:25.208Z,21.60
2018-05-14T01:12:51.120Z,20.45
2018-05-14T01:15:17.040Z,21.55
2018-05-14T01:17:44.817Z,20.73
2018-05-14T01:20:10.759Z,19.73
2018-05-14T01:22:39.717Z,20.00
2018-05-14T01:25:05.703Z,18.52
2018-05-14T01:27:35.236Z,19.92
2018-05-14T01:30:01.102Z,19.80
2018-05-14T01:32:29.432Z,19.30
2018-05-14T01:34:55.325Z,18.40
2018-05-14T01:37:21.214Z,18.87
2018-05-14T01:39:47.123Z,18.65
2018-05-14T01:42:13.023Z,19.10
2018-05-14T01:44:41.015Z,18.65
2018-05-14T01:47:07.123Z,18.30
2018-05-14T01:49:36.471Z,19.02
2018-05-14T01:52:02.392Z,18.67
2018-05-14T01:54:31.951Z,19.50
2018-05-14T01:56:57.928Z,17.40
2018-05-14T01:59:25.044Z,17.25
2018-05-14T02:01:50.980Z,16.50
2018-05-14T02:04:20.709Z,16.02
2018-05-14T02:06:46.646Z,16.37
2018-05-14T02:09:15.859Z,16.15
2018-05-14T02:11:41.809Z,14.73
2018-05-14T02:14:07.694Z,15.35
2018-05-14T02:16:33.587Z,15.32
2018-05-14T02:18:59.500Z,14.40
2018-05-14T02:21:26.836Z,15.85
2018-05-14T02:23:52.753Z,16.30
2018-05-14T02:26:22.011Z,14.80
2018-05-14T02:28:47.899Z,14.63
2018-05-14T02:31:17.173Z,15.13
2018-05-14T02:33:43.232Z,14.73
2018-05-14T02:36:10.212Z,13.68
2018-05-14T02:38:36.108Z,14.77
2018-05-14T02:41:05.334Z,14.70
2018-05-14T02:43:31.262Z,13.97
2018-05-14T02:46:00.696Z,13.73
2018-05-14T02:48:26.562Z,12.95
2018-05-14T02:50:52.450Z,13.88
2018-05-14T02:53:18.389Z,13.00
2018-05-14T02:55:44.281Z,12.70
2018-05-14T02:58:11.523Z,12.32
2018-05-14T03:00:37.456Z,13.32
2018-05-14T03:03:06.646Z,13.50
2018-05-14T03:05:32.535Z,12.73
2018-05-14T03:08:01.900Z,13.70
2018-05-14T03:10:27.823Z,13.05
2018-05-14T03:12:56.960Z,13.30
2018-05-14T03:15:22.862Z,13.10
2018-05-14T03:17:50.324Z,12.82
2018-05-14T03:20:16.166Z,13.62
2018-05-14T03:22:44.964Z,13.77
2018-05-14T03:25:10.817Z,13.25
2018-05-14T03:27:36.745Z,12.37
2018-05-14T03:30:02.757Z,13.32
2018-05-14T03:32:28.710Z,11.80
2018-05-14T03:34:58.130Z,13.10
2018-05-14T03:37:24.029Z,12.00
2018-05-14T03:39:51.411Z,12.50
2018-05-14T03:42:17.279Z,13.07
2018-05-14T03:44:46.810Z,12.60
2018-05-14T03:47:12.774Z,13.73
2018-05-14T03:49:42.347Z,12.93
2018-05-14T03:52:08.228Z,12.43
2018-05-14T03:54:37.402Z,12.50
2018-05-14T03:57:03.313Z,13.70
2018-05-14T03:59:42.265Z,14.68
2018-05-14T04:02:18.437Z,13.50
2018-05-14T04:04:56.724Z,12.70
2018-05-14T04:07:22.620Z,12.80
2018-05-14T04:09:48.523Z,12.50
2018-05-14T04:12:14.434Z,12.75
2018-05-14T04:14:40.957Z,12.18
2018-05-14T04:17:06.909Z,12.30
2018-05-14T04:19:32.762Z,12.02
2018-05-14T04:21:58.646Z,13.30
2018-05-14T04:24:24.600Z,14.40
2018-05-14T04:26:50.450Z,14.95
2018-05-14T04:29:16.364Z,15.05
2018-05-14T04:31:42.279Z,12.60
2018-05-14T04:34:08.181Z,12.80
2018-05-14T04:36:34.042Z,12.70
2018-05-14T04:39:00.001Z,12.13
2018-05-14T04:41:25.898Z,13.20
2018-05-14T04:43:51.800Z,12.20
2018-05-14T04:46:17.696Z,11.68
2018-05-14T04:48:43.634Z,10.68
2018-05-14T04:51:09.532Z,11.57
2018-05-14T04:53:35.416Z,10.95
2018-05-14T04:56:01.287Z,10.10
2018-05-14T05:07:05.465Z,8.57
2018-05-14T05:09:31.414Z,9.48
2018-05-14T05:11:57.311Z,8.47
2018-05-14T05:14:23.256Z,9.20
2018-05-14T05:16:49.134Z,7.85
2018-05-14T05:19:15.039Z,8.20
2018-05-14T05:21:40.950Z,8.50
2018-05-14T05:24:06.846Z,8.18
2018-05-14T05:26:32.779Z,8.43
2018-05-14T05:28:58.783Z,8.63
2018-05-14T05:31:24.691Z,9.90
2018-05-14T05:33:51.400Z,8.40
2018-05-14T05:36:17.340Z,8.80
2018-05-14T05:38:43.243Z,9.57
2018-05-14T05:41:09.194Z,8.80
2018-05-14T05:43:35.140Z,10.20
2018-05-14T05:46:02.934Z,10.45
2018-05-14T05:48:28.852Z,10.60
2018-05-14T05:50:58.139Z,10.07
2018-05-14T05:53:24.008Z,10.93
2018-05-14T05:55:53.377Z,12.13
2018-05-14T05:58:19.284Z,10.60
2018-05-14T06:00:48.588Z,11.20
2018-05-14T06:03:14.461Z,11.60
2018-05-14T06:05:41.673Z,12.57
2018-05-14T06:08:07.575Z,11.35
2018-05-14T06:10:37.140Z,12.00
2018-05-14T06:13:03.054Z,11.20
2018-05-14T06:15:29.015Z,11.75
2018-05-14T06:17:54.865Z,10.48
2018-05-14T06:20:20.744Z,10.32
2018-05-14T06:22:47.884Z,10.27
2018-05-14T06:25:13.803Z,11.10
2018-05-14T06:27:43.821Z,11.60
2018-05-14T06:30:09.645Z,11.90
2018-05-14T06:32:38.883Z,11.50
2018-05-14T06:35:04.808Z,10.88
2018-05-14T06:37:33.827Z,10.73
2018-05-14T06:39:59.747Z,10.40
2018-05-14T06:42:27.039Z,11.25
2018-05-14T06:44:52.948Z,10.57
2018-05-14T06:47:22.540Z,10.02
2018-05-14T06:49:48.540Z,12.43
2018-05-14T06:52:14.400Z,12.55
2018-05-14T06:54:40.267Z,12.13
2018-05-14T06:57:06.183Z,13.13
2018-05-14T06:59:33.924Z,13.15
2018-05-14T07:01:59.804Z,13.20
2018-05-14T07:04:29.075Z,12.82
2018-05-14T07:06:55.003Z,12.50
2018-05-14T07:09:24.191Z,11.60
2018-05-14T07:11:50.064Z,10.65
2018-05-14T07:14:17.323Z,10.60
2018-05-14T07:16:43.212Z,10.83
2018-05-14T07:19:12.233Z,9.70
2018-05-14T07:33:35.257Z,10.32
2018-05-14T07:36:01.168Z,10.07
2018-05-14T07:38:27.078Z,9.30
2018-05-14T07:40:52.968Z,8.70
2018-05-14T07:43:18.897Z,8.00
2018-05-14T07:45:44.842Z,8.60
2018-05-14T07:48:10.710Z,9.00
2018-05-14T07:50:36.620Z,8.90
2018-05-14T07:53:02.510Z,9.30
2018-05-14T07:55:28.438Z,9.57
2018-05-14T07:57:54.349Z,10.10
2018-05-14T08:00:20.268Z,9.30
2018-05-14T08:02:46.165Z,10.10
2018-05-14T08:05:12.080Z,9.95
2018-05-14T08:07:37.959Z,10.20
2018-05-14T08:10:04.308Z,10.63
2018-05-14T08:12:30.277Z,11.12
2018-05-14T08:14:56.228Z,11.60
2018-05-14T08:17:22.088Z,11.73
2018-05-14T08:19:47.989Z,11.53
2018-05-14T08:22:14.135Z,10.32
2018-05-14T08:24:40.046Z,10.95
2018-05-14T08:27:05.943Z,12.43
2018-05-14T08:29:31.844Z,12.07
2018-05-14T08:31:57.888Z,12.25
2018-05-14T08:34:24.295Z,12.85
2018-05-14T08:36:50.231Z,13.20
2018-05-14T08:39:16.135Z,15.45
2018-05-14T08:41:42.076Z,15.68
2018-05-14T08:44:07.960Z,15.77
2018-05-14T08:46:33.842Z,15.80
2018-05-14T08:48:59.739Z,15.57
2018-05-14T08:51:25.619Z,15.10
2018-05-14T08:53:51.532Z,15.80
2018-05-14T08:56:17.452Z,15.10
2018-05-14T08:58:43.367Z,15.32
2018-05-14T09:01:09.272Z,15.07
2018-05-14T09:03:35.200Z,15.60
2018-05-14T09:06:01.128Z,15.25
2018-05-14T09:08:27.067Z,16.62
2018-05-14T09:10:52.972Z,17.87
2018-05-14T09:13:18.850Z,16.98
2018-05-14T09:15:44.801Z,20.40
2018-05-14T09:18:10.765Z,19.62
2018-05-14T09:20:36.649Z,19.95
2018-05-14T09:23:02.597Z,20.52
2018-05-14T09:25:28.589Z,21.60
2018-05-14T09:27:54.451Z,20.65
2018-05-14T09:30:20.390Z,19.45
2018-05-14T09:32:46.811Z,18.80
2018-05-14T09:35:12.753Z,18.25
2018-05-14T09:37:38.656Z,19.48
2018-05-14T09:40:04.608Z,19.70
2018-05-14T09:42:30.545Z,18.35
2018-05-14T09:44:56.434Z,19.00
2018-05-14T09:47:24.744Z,18.90
2018-05-14T09:49:50.647Z,17.50
2018-05-14T09:52:20.371Z,17.48
2018-05-14T09:54:46.289Z,16.35
2018-05-14T09:57:16.235Z,17.23
2018-05-14T09:59:42.119Z,17.80
2018-05-14T10:02:08.876Z,17.87
2018-05-14T10:04:34.794Z,18.00
2018-05-14T10:07:04.716Z,18.03
2018-05-14T10:09:30.612Z,18.20
2018-05-14T10:11:56.506Z,17.95
2018-05-14T10:14:22.858Z,18.25
2018-05-14T10:16:48.863Z,18.70
2018-05-14T10:19:15.578Z,19.00
2018-05-14T10:21:41.478Z,19.52
2018-05-14T10:24:10.423Z,20.00
2018-05-14T10:26:36.355Z,20.10
2018-05-14T10:29:05.862Z,19.42
2018-05-14T10:31:32.183Z,20.50
2018-05-14T10:33:59.269Z,19.75
2018-05-14T10:36:25.177Z,19.98
2018-05-14T10:38:54.278Z,19.70
2018-05-14T10:52:02.273Z,21.12
2018-05-14T10:54:28.296Z,20.33
2018-05-14T10:56:54.227Z,21.48
2018-05-14T10:59:20.123Z,21.10
2018-05-14T11:01:46.026Z,19.10
2018-05-14T11:04:11.971Z,19.10
2018-05-14T11:06:37.891Z,19.95
2018-05-14T11:09:03.826Z,20.13
2018-05-14T11:17:15.608Z,20.70
2018-05-14T11:19:41.538Z,20.98
2018-05-14T11:22:07.410Z,20.75
2018-05-14T11:24:33.330Z,21.15
2018-05-14T11:26:59.270Z,20.88
2018-05-14T11:29:25.146Z,21.70
2018-05-14T11:31:51.142Z,21.25
2018-05-14T11:34:17.054Z,21.75
2018-05-14T11:36:42.945Z,22.67
2018-05-14T11:39:08.970Z,22.57
2018-05-14T11:41:34.855Z,23.58
2018-05-14T11:44:00.799Z,23.85
2018-05-14T11:46:26.722Z,24.27
2018-05-14T11:48:52.619Z,24.10
2018-05-14T11:51:18.510Z,25.30
2018-05-14T11:53:44.407Z,22.87
2018-05-14T11:56:10.275Z,23.90
2018-05-14T11:58:36.178Z,23.80
2018-05-14T12:01:02.719Z,23.00
2018-05-14T12:03:28.619Z,25.08
2018-05-14T12:05:54.513Z,27.00
2018-05-14T12:08:20.420Z,26.20
2018-05-14T12:10:46.323Z,74.47
2018-05-14T12:13:15.346Z,40.47
2018-05-14T12:15:41.251Z,26.92
2018-05-14T12:18:10.674Z,26.13
2018-05-14T12:20:36.559Z,26.33
2018-05-14T12:23:02.505Z,27.15
2018-05-14T12:25:28.360Z,27.13
2018-05-14T12:27:54.251Z,27.37
2018-05-14T12:30:21.158Z,26.52
2018-05-14T12:32:47.575Z,26.08
2018-05-14T12:35:16.336Z,26.33
2018-05-14T12:37:42.231Z,27.67
2018-05-14T12:48:47.813Z,28.65
2018-05-14T12:51:13.751Z,30.25
2018-05-14T12:53:39.721Z,29.45
2018-05-14T12:56:07.159Z,29.50
2018-05-14T12:58:33.155Z,29.33
2018-05-14T13:01:00.972Z,29.93
2018-05-14T13:03:26.888Z,30.83
2018-05-14T13:05:56.694Z,29.48
2018-05-14T13:08:22.590Z,28.65
2018-05-14T13:10:50.006Z,28.40
2018-05-14T13:13:15.924Z,26.73
2018-05-14T13:15:42.487Z,27.13
2018-05-14T13:18:08.446Z,27.13
2018-05-14T13:20:34.348Z,27.30
2018-05-14T13:23:03.366Z,25.27
2018-05-14T13:25:29.498Z,27.35
2018-05-14T13:27:56.585Z,26.77
2018-05-14T13:30:22.637Z,27.08
2018-05-14T13:32:51.691Z,26.58
2018-05-14T13:35:17.749Z,27.83
2018-05-14T13:37:49.581Z,27.42
2018-05-14T13:40:17.250Z,27.80
2018-05-14T13:42:43.339Z,26.95
2018-05-14T13:45:09.317Z,27.05
2018-05-14T13:47:35.445Z,26.87
2018-05-14T13:50:01.808Z,24.20
2018-05-14T13:52:32.841Z,26.25
2018-05-14T13:54:59.470Z,27.40
2018-05-14T13:57:25.469Z,27.70
2018-05-14T13:59:51.365Z,28.62
2018-05-14T14:02:17.286Z,28.30
2018-05-14T14:04:43.260Z,28.40
2018-05-14T14:07:16.197Z,29.73
2018-05-14T14:09:45.013Z,28.70
2018-05-14T14:12:11.094Z,30.15
2018-05-14T14:14:36.996Z,29.20
2018-05-14T14:17:02.903Z,31.87
2018-05-14T14:19:28.853Z,30.40
2018-05-14T14:21:55.249Z,33.90
2018-05-14T14:24:21.208Z,32.05
2018-05-14T14:26:47.038Z,33.42
2018-05-14T14:29:12.979Z,33.95
2018-05-14T14:31:38.880Z,36.05
2018-05-14T14:34:12.537Z,36.80
2018-05-14T14:36:38.683Z,37.23
2018-05-14T14:39:11.885Z,55.30
2018-05-14T14:41:38.691Z,38.83
2018-05-14T14:44:04.614Z,36.33
2018-05-14T14:46:30.591Z,37.93
2018-05-14T14:48:56.474Z,36.90
2018-05-14T14:51:22.382Z,39.17
2018-05-14T14:53:48.298Z,38.28
2018-05-14T14:56:14.174Z,39.28
2018-05-14T14:58:40.075Z,39.47
2018-05-14T15:01:07.190Z,41.17
2018-05-14T15:03:33.391Z,40.33
2018-05-14T15:05:59.312Z,42.27
2018-05-14T15:08:25.161Z,41.72
2018-05-14T15:10:55.247Z,42.80
2018-05-14T15:13:21.413Z,42.28
2018-05-14T15:15:47.336Z,43.53
2018-05-14T15:18:13.256Z,42.22
2018-05-14T15:20:39.159Z,41.55
2018-05-14T15:23:07.139Z,43.45
2018-05-14T15:25:33.051Z,41.13
2018-05-14T15:28:02.531Z,43.38
2018-05-14T15:30:28.392Z,42.70
2018-05-14T15:32:56.893Z,42.10
2018-05-14T15:35:22.802Z,42.65
2018-05-14T15:37:52.224Z,42.45
2018-05-14T15:40:18.127Z,39.80
2018-05-14T15:42:44.015Z,39.90
2018-05-14T15:45:09.985Z,40.75
2018-05-14T15:47:35.923Z,42.00
2018-05-14T15:50:05.588Z,40.42
2018-05-14T15:52:31.574Z,42.10
2018-05-14T15:54:58.291Z,41.93
2018-05-14T15:57:24.193Z,44.57
2018-05-14T15:59:53.842Z,50.75
2018-05-14T16:02:19.743Z,42.30
2018-05-14T16:04:48.868Z,43.72
2018-05-14T16:07:14.795Z,46.25
2018-05-14T16:09:41.743Z,45.83
2018-05-14T16:12:07.627Z,47.15
2018-05-14T16:14:40.493Z,46.22
2018-05-14T16:17:10.471Z,47.05
2018-05-14T16:19:37.024Z,52.78
2018-05-14T16:22:02.966Z,53.90
2018-05-14T16:24:28.880Z,55.63
2018-05-14T16:26:54.815Z,56.95
2018-05-14T16:29:20.737Z,60.45
2018-05-14T16:31:46.658Z,60.25
2018-05-14T16:34:12.604Z,61.67
2018-05-14T16:36:38.497Z,63.08
2018-05-14T16:39:04.451Z,64.70
2018-05-14T16:41:33.504Z,61.80
2018-05-14T16:43:59.397Z,65.78
2018-05-14T16:46:28.968Z,67.60
2018-05-14T16:48:54.883Z,63.47
2018-05-14T16:51:22.481Z,66.80
2018-05-14T16:53:48.432Z,70.22
2018-05-14T16:56:19.560Z,70.50
2018-05-14T16:58:45.529Z,75.60
2018-05-14T17:01:18.734Z,69.32
2018-05-14T17:03:45.386Z,69.80
2018-05-14T17:06:18.476Z,65.03
2018-05-14T17:08:44.829Z,61.10
2018-05-14T17:11:18.951Z,61.22
2018-05-14T17:13:45.600Z,59.38
2018-05-14T17:16:11.510Z,59.03
2018-05-14T17:18:37.425Z,57.50
2018-05-14T17:21:03.360Z,56.47
2018-05-14T17:23:29.299Z,61.80
2018-05-14T17:25:55.229Z,59.03
2018-05-14T17:28:21.138Z,58.23
2018-05-14T17:30:47.011Z,56.47
2018-05-14T17:33:12.983Z,55.67
2018-05-14T17:35:39.091Z,53.85
2018-05-14T17:38:05.007Z,51.40
2018-05-14T17:40:38.807Z,50.92
2018-05-14T17:43:05.316Z,44.05
2018-05-14T17:45:31.239Z,44.10
2018-05-14T17:47:57.128Z,44.25
2018-05-14T17:50:32.204Z,45.80
2018-05-14T17:52:58.985Z,49.20
2018-05-14T17:55:24.811Z,55.72
2018-05-14T17:57:50.780Z,57.20
2018-05-14T18:00:16.641Z,58.97
2018-05-14T18:02:42.567Z,55.33
2018-05-14T18:05:08.563Z,56.80
2018-05-14T18:07:34.414Z,56.10
2018-05-14T18:10:00.255Z,56.35
2018-05-14T18:12:26.147Z,60.17
2018-05-14T18:14:52.044Z,58.63
2018-05-14T18:17:18.011Z,56.63
2018-05-14T18:19:50.157Z,56.10
2018-05-14T18:22:23.452Z,57.78
2018-05-14T18:24:50.293Z,55.88
2018-05-14T18:27:23.954Z,55.50
2018-05-14T18:29:53.984Z,53.70
2018-05-14T18:32:19.905Z,52.30
2018-05-14T18:34:45.828Z,55.80
2018-05-14T18:37:11.744Z,52.70
2018-05-14T18:39:37.655Z,52.83
2018-05-14T18:42:03.566Z,55.38
2018-05-14T18:44:33.475Z,54.17
2018-05-14T18:46:59.399Z,52.22
2018-05-14T18:49:25.306Z,55.28
2018-05-14T18:51:51.284Z,57.70
2018-05-14T18:56:48.718Z,60.53
2018-05-14T18:59:14.857Z,61.47
2018-05-14T19:01:41.197Z,65.07
2018-05-14T19:04:07.090Z,59.80
2018-05-14T19:06:33.008Z,59.65
2018-05-14T19:08:59.195Z,58.10
2018-05-14T19:11:31.079Z,58.15
2018-05-14T19:13:56.981Z,52.97
2018-05-14T19:16:29.991Z,50.95
2018-05-14T19:18:55.920Z,51.60
2018-05-14T19:21:21.868Z,50.12
2018-05-14T19:23:53.200Z,48.42
2018-05-14T19:26:19.105Z,49.00
2018-05-14T19:28:51.450Z,48.28
2018-05-14T19:31:17.364Z,48.50
2018-05-14T19:33:49.338Z,47.30
2018-05-14T19:36:15.279Z,46.50
2018-05-14T19:38:41.210Z,44.83
2018-05-14T19:41:07.112Z,44.00
2018-05-14T19:43:33.037Z,45.95
2018-05-14T19:45:58.971Z,43.83
2018-05-14T19:48:24.865Z,43.40
2018-05-14T19:50:50.804Z,45.20
2018-05-14T19:53:16.682Z,43.90
2018-05-14T19:55:42.822Z,44.57
2018-05-14T19:58:08.966Z,45.25
2018-05-14T20:00:34.865Z,43.15
2018-05-14T20:03:00.815Z,42.72
2018-05-14T20:05:26.719Z,39.05
2018-05-14T20:07:52.610Z,42.00
2018-05-14T20:10:18.523Z,41.53
2018-05-14T20:12:44.452Z,42.97
2018-05-14T20:15:10.332Z,44.78
2018-05-14T20:17:36.263Z,42.10
2018-05-14T20:20:02.597Z,43.42
2018-05-14T20:22:28.463Z,43.35
2018-05-14T20:24:54.415Z,43.05
2018-05-14T20:27:20.322Z,43.67
2018-05-14T20:29:46.264Z,45.60
2018-05-14T20:32:12.165Z,45.90
2018-05-14T20:34:38.096Z,43.75
2018-05-14T20:37:04.103Z,44.58
2018-05-14T20:39:29.934Z,42.80
2018-05-14T20:41:56.178Z,43.38
2018-05-14T20:44:22.113Z,40.10
2018-05-14T20:46:48.320Z,41.70
2018-05-14T20:49:14.256Z,44.42
2018-05-14T20:51:40.213Z,42.13
2018-05-14T20:54:06.133Z,41.50
2018-05-14T20:56:32.317Z,41.45
2018-05-14T20:58:58.237Z,40.33
2018-05-14T21:01:24.140Z,41.00
2018-05-14T21:03:50.044Z,39.33
2018-05-14T21:06:16.343Z,38.90
2018-05-14T21:08:42.318Z,38.45
2018-05-14T21:11:08.287Z,40.42
2018-05-14T21:13:34.199Z,39.55
2018-05-14T21:16:00.085Z,42.97
2018-05-14T21:18:26.003Z,41.28
2018-05-14T21:20:51.915Z,42.15
2018-05-14T21:23:17.847Z,42.35
2018-05-14T21:25:47.416Z,41.70
2018-05-14T21:28:13.324Z,39.38
2018-05-14T21:30:40.800Z,41.50
2018-05-14T21:33:06.682Z,41.33
2018-05-14T21:35:36.101Z,41.20
2018-05-14T21:38:02.028Z,39.05
2018-05-14T21:40:31.512Z,40.23
2018-05-14T21:42:57.404Z,38.00
2018-05-14T21:45:24.371Z,40.27
2018-05-14T21:47:50.286Z,38.08
2018-05-14T21:50:16.226Z,38.67
2018-05-14T21:52:42.134Z,37.92
2018-05-14T21:55:08.049Z,36.73
2018-05-14T21:57:37.726Z,36.63
2018-05-14T22:00:03.869Z,35.55
2018-05-14T22:02:31.416Z,38.50
2018-05-14T22:04:57.308Z,36.97
2018-05-14T22:07:26.686Z,38.70
2018-05-14T22:09:52.590Z,37.33
2018-05-14T22:12:22.136Z,38.42
2018-05-14T22:14:49.334Z,37.22
2018-05-14T22:17:15.292Z,35.33
2018-05-14T22:19:41.190Z,38.13
2018-05-14T22:22:10.308Z,38.40
2018-05-14T22:24:36.212Z,38.23
2018-05-14T22:27:02.131Z,36.28
2018-05-14T22:29:27.999Z,37.72
2018-05-14T22:31:53.912Z,43.22
2018-05-14T22:34:21.337Z,37.93
2018-05-14T22:36:47.218Z,36.67
2018-05-14T22:39:15.895Z,35.07
2018-05-14T22:41:41.824Z,34.85
2018-05-14T22:44:10.560Z,39.05
2018-05-14T22:46:36.492Z,38.08
2018-05-14T22:49:05.589Z,34.80
2018-05-14T22:51:31.515Z,36.17
2018-05-14T22:54:00.319Z,39.47
2018-05-14T22:56:26.214Z,36.53
2018-05-14T22:58:55.171Z,34.88
2018-05-14T23:01:21.081Z,37.67
2018-05-14T23:03:46.989Z,40.47
2018-05-14T23:06:12.924Z,36.58
2018-05-14T23:08:38.828Z,39.22
2018-05-14T23:11:07.034Z,42.30
2018-05-14T23:13:32.963Z,36.50
2018-05-14T23:16:02.535Z,38.00
2018-05-14T23:18:28.447Z,36.85
2018-05-14T23:20:57.828Z,39.00
2018-05-14T23:23:23.723Z,40.63
2018-05-14T23:25:50.864Z,41.33
2018-05-14T23:28:16.743Z,46.95
2018-05-14T23:30:46.607Z,52.40
2018-05-14T23:33:12.527Z,50.60
2018-05-14T23:35:41.507Z,44.40
2018-05-14T23:38:07.389Z,40.17
2018-05-14T23:40:33.303Z,38.70
2018-05-14T23:42:59.215Z,36.35
2018-05-14T23:45:25.140Z,36.58
2018-05-14T23:47:52.631Z,51.03
2018-05-14T23:50:18.542Z,43.85
2018-05-14T23:52:46.983Z,42.80
2018-05-14T23:55:12.887Z,39.20
2018-05-14T23:57:41.475Z,38.85
